Terminal Aerodrome Forecast
Issued by NWS

Home | Current Version | Previous Version | Text Only | Print | Product List | Glossary On
Versions: 1 2 3 4 5 6 7 8 9 10 11 12 13 14 15
000
FTUS45 KABQ 242339
TAFFMN
TAF
KFMN 242339Z 2500/2524 28012G18KT P6SM BKN070
     FM250200 VRB05KT P6SM SCT080 BKN150
     FM251200 08005KT P6SM VCSH BKN060
     FM251900 27011G20KT P6SM -SHRA BKN070=

USA.gov is the U.S. government's official web portal to all federal, state and local government web resources and services.